AirNav   Air Wisconsin Airman Trainee
 
 608 users online  

1AL8 Moore Field Airport
Moody, Alabama, USA

GOING TO MOODY?


FAA INFORMATION EFFECTIVE 31 JANUARY 2019

Location

FAA Identifier: 1AL8
Lat/Long: 33-36-40.0000N / 086-28-28.0000W
33-36.666667N / 086-28.466667W
33.6111111 / -86.4744444
(estimated)
Elevation: 730 ft. / 223 m (estimated)
Variation: 01W (1990)
From city: 2 miles NE of MOODY, AL
Time zone: UTC -6 (UTC -5 during Daylight Saving Time)
Zip code: 35004

Airport Operations

Airport use: Private use. Permission required prior to landing
Activation date: 03/1993
Control tower: no
ARTCC: ATLANTA CENTER
FSS: ANNISTON FLIGHT SERVICE STATION
Attendance: UNATNDD
Segmented circle: no

Airport Communications

WX AWOS-3P at PLR (12 nm E): 119.625 ((205) 884-4359)
WX ASOS at BHM (14 nm W): PHONE 205-591-6172

Nearby radio navigation aids

VOR radial/distance  VOR name  Freq  Var
VUZr097/21.5VULCAN VORTAC114.4002E
TDGr274/21.7TALLADEGA VOR/DME108.8002E
GADr220/29.3GADSDEN VOR/DME112.3002E

Airport Services

Runway Information

Runway 17/35

Dimensions: 2000 x 100 ft. / 610 x 30 m
Surface: turf, in good condition
RUNWAY 17  RUNWAY 35
Traffic pattern: leftleft
Obstructions: none140 ft. hill, 2640 ft. from runway

Airport Ownership and Management from official FAA records

Ownership: Privately-owned
Owner: JAMES H. (JIMMY) MOORE
8317 FARLEY AVENUE
LEEDS, AL 35094
Phone 205-699-7518
Manager: JAMES H. MOORE
8317 FARLEY AVENUE
LEEDS, AL 35094
Phone 205-699-7518

Instrument Procedures

There are no published instrument procedures at 1AL8.

Some nearby airports with instrument procedures:

KPLR - St Clair County Airport (12 nm E)
KBHM - Birmingham-Shuttlesworth International Airport (14 nm W)
KASN - Talladega Municipal Airport (21 nm E)
20A - Robbins Field Airport (22 nm N)
KSCD - Merkel Field Sylacauga Municipal Airport (28 nm S)
 
Loc | Ops | Rwys | IFR | FBO | Links
Com | Nav | Svcs | Stats | Notes
Area around 1AL8 (Moore Field Airport)
 
Road maps at: MapQuest Bing Google
 
Aerial photo
No photo
 
Sectional chart

 
Airport distance calculator
Flying to Moore Field Airport? Find the distance to fly.

From to 1AL8

Sunrise and sunset
Times for 15-Feb-2019
 Local
(UTC-6)
 Zulu
(UTC)
Morning civil twilight06:0612:06
Sunrise06:3112:31
Sunset17:2923:29
Evening civil twilight17:5523:55

Current date and time
Zulu (UTC)  16-Feb-2019 04:39:28
Local (UTC-6)  15-Feb-2019 22:39:28
 
METAR
KPLR 
12nm E 
160415Z AUTO 20010KT 3SM BR OVC007 16/16 A2977 RMK A01
KBHM 
14nm W 
160353Z 20008KT 7SM OVC007 17/16 A2979 RMK AO2 RAE00 SLP082 P0000 T01670156
KASN 
21nm E 
160415Z AUTO 21011KT 10SM OVC010 16/16 A2977 RMK AO2 P0001 T01600157
TAF
KBHM 
14nm W 
160409Z 1604/1624 19007KT P6SM -RA OVC007 FM160800 25007KT P6SM -RA OVC005 FM161100 33012KT P6SM VCSH OVC008 FM161600 35008KT P6SM OVC015 FM161900 35005KT P6SM BKN025
NOTAMs
Click for the latest NOTAMs
NOTAMs are issued by the DoD/FAA and will open in a separate window not controlled by AirNav.

 

 
 

Would you like to see your business listed on this page?

 If your business provides an interesting product or service to pilots, flight crews, aircraft, or users of the Moore Field Airport, you should consider listing it here.  To start the listing process, click on the button below
 
Add a business
 

Other Pages about Moore Field Airport

Update a link
 
Copyright © AirNav, LLC. All rights reserved. Privacy Policy  Contact